Time;durP1;ratioP1;P1;durP2;ratioP2;P2;SDS_P1;SDS_P2;PMS_P1;PMS_P2;Temp;Humidity;BMP_temperature;BMP_pressure;BME280_temperature;BME280_humidity;BME280_pressure;Samples;Min_cycle;Max_cycle;Signal;HPM_P1;HPM_P2
2023/05/25 00:03:44;;;;;;;12.57;6.15;;;;;;;20.40;91.65;99994.94;10496200;28;20052;-65
2023/05/25 00:08:45;;;;;;;13.35;6.30;;;;;;;20.02;92.45;99950.53;10493833;28;20036;-65
2023/05/25 00:13:46;;;;;;;12.52;5.95;;;;;;;20.18;93.17;99994.78;10495065;28;20036;-65
2023/05/25 00:18:47;;;;;;;11.02;5.57;;;;;;;19.37;93.54;99905.75;10495810;28;20059;-65
2023/05/25 00:23:48;;;;;;;18.17;5.93;;;;;;;19.86;94.27;100005.16;10497280;28;20044;-66
2023/05/25 00:28:49;;;;;;;13.18;5.07;;;;;;;19.42;94.63;99958.13;10503703;28;20515;-65
2023/05/25 00:33:50;;;;;;;13.50;5.78;;;;;;;19.89;95.28;100049.69;10502785;28;20135;-65
2023/05/25 00:38:50;;;;;;;13.85;5.65;;;;;;;19.69;95.09;100023.16;10503038;28;20082;-65
2023/05/25 00:43:51;;;;;;;14.00;6.78;;;;;;;19.76;95.03;100026.53;10501225;28;20045;-65
2023/05/25 00:48:55;;;;;;;14.98;6.85;;;;;;;19.78;95.49;100038.72;10503412;28;20041;-65
2023/05/25 00:53:55;;;;;;;15.38;6.93;;;;;;;19.67;94.95;100028.75;10502955;28;20048;-65
2023/05/25 00:58:59;;;;;;;12.45;6.68;;;;;;;19.53;95.55;100033.56;10502333;28;20036;-65
2023/05/25 01:04:02;;;;;;;24.58;7.95;;;;;;;19.41;95.99;100021.91;10502069;28;20048;-65
2023/05/25 01:09:04;;;;;;;37.97;9.38;;;;;;;19.31;96.61;100013.63;10501750;28;20500;-67
2023/05/25 01:14:05;;;;;;;43.90;10.13;;;;;;;19.25;97.15;100012.69;10501781;28;20047;-65
2023/05/25 01:19:06;;;;;;;135.05;13.05;;;;;;;19.38;97.70;100022.38;10501342;28;20041;-65
2023/05/25 01:24:20;;;;;;;66.90;11.15;;;;;;;19.44;97.74;100009.88;10501857;28;20542;-66
2023/05/25 01:29:31;;;;;;;26.05;8.18;;;;;;;19.16;100.00;99987.16;10501333;28;20052;-65
2023/05/25 01:34:33;;;;;;;40.97;9.52;;;;;;;19.35;98.47;100023.69;10497952;28;20080;-65
2023/05/25 01:39:34;;;;;;;30.67;8.32;;;;;;;18.90;98.16;99945.31;10500456;28;20047;-66
2023/05/25 01:44:36;;;;;;;44.15;8.80;;;;;;;19.35;99.21;100045.25;10499824;28;20531;-65
2023/05/25 01:49:53;;;;;;;16.63;7.82;;;;;;;19.26;100.00;100037.72;10499855;28;20043;-65
2023/05/25 01:55:02;;;;;;;26.67;7.95;;;;;;;19.28;100.00;100046.41;10498887;28;20071;-65
2023/05/25 02:00:04;;;;;;;12.38;6.65;;;;;;;19.24;99.50;100043.34;10500540;28;20454;-65
2023/05/25 02:05:05;;;;;;;18.48;6.88;;;;;;;18.81;99.44;99979.81;10499187;28;20052;-65
2023/05/25 02:10:06;;;;;;;22.00;6.25;;;;;;;19.18;99.44;100067.72;10487936;28;20043;-66
2023/05/25 02:15:08;;;;;;;42.63;6.88;;;;;;;18.94;99.02;100032.66;10460242;28;20044;-65
2023/05/25 02:20:10;;;;;;;33.28;6.97;;;;;;;18.96;99.49;100043.16;10457220;28;20041;-65
2023/05/25 02:25:11;;;;;;;23.30;6.18;;;;;;;18.97;100.00;100048.34;10455699;28;20041;-65
2023/05/25 02:30:12;;;;;;;13.48;5.45;;;;;;;18.78;100.00;100017.16;10456797;28;20081;-65
2023/05/25 02:35:13;;;;;;;19.30;6.50;;;;;;;18.93;100.00;100050.69;10457368;28;20041;-65
2023/05/25 02:40:14;;;;;;;12.32;6.13;;;;;;;18.92;99.99;100045.50;10456344;28;20044;-65
2023/05/25 02:45:14;;;;;;;12.27;5.20;;;;;;;19.57;98.62;100039.28;10455968;28;20064;-65
2023/05/25 02:50:15;;;;;;;11.45;4.50;;;;;;;20.35;96.15;100046.09;10448567;28;20037;-67
2023/05/25 02:55:17;;;;;;;8.68;4.10;;;;;;;20.94;92.67;100035.09;10450346;28;20048;-66
2023/05/25 03:00:19;;;;;;;9.18;4.30;;;;;;;21.64;89.81;100052.69;10455805;28;20411;-65
2023/05/25 03:05:20;;;;;;;9.73;4.60;;;;;;;22.74;85.40;100053.53;10456109;28;20404;-65
2023/05/25 03:10:21;;;;;;;9.00;3.80;;;;;;;23.84;81.03;100055.00;10459541;28;20052;-66
2023/05/25 03:15:21;;;;;;;6.07;4.07;;;;;;;24.56;77.80;100059.69;10483994;28;20040;-67
2023/05/25 03:20:23;;;;;;;5.15;3.10;;;;;;;25.42;74.49;100060.88;10455535;28;20041;-64
2023/05/25 03:25:24;;;;;;;6.45;3.30;;;;;;;25.82;71.22;100066.56;10455330;28;20674;-65
2023/05/25 03:30:25;;;;;;;7.63;3.60;;;;;;;26.49;68.10;100069.84;10453723;28;20064;-65
2023/05/25 03:35:26;;;;;;;6.20;3.35;;;;;;;27.14;65.44;100064.28;10453657;28;20056;-65
2023/05/25 03:40:27;;;;;;;7.93;3.95;;;;;;;27.44;63.42;100008.69;10451507;28;20039;-64
2023/05/25 03:45:43;;;;;;;8.88;3.63;;;;;;;28.29;62.17;100062.59;10454684;28;20044;-64
2023/05/25 03:50:43;;;;;;;8.30;3.40;;;;;;;28.57;59.97;100063.63;10453830;28;20033;-65
2023/05/25 03:55:44;;;;;;;8.52;3.67;;;;;;;29.19;58.24;100062.69;10469246;28;20049;-64
2023/05/25 04:00:47;;;;;;;7.32;3.20;;;;;;;28.60;59.60;100065.75;10453302;28;20106;-64
2023/05/25 04:05:48;;;;;;;6.40;3.47;;;;;;;27.54;61.81;100074.03;10454510;28;20080;-64
2023/05/25 04:10:49;;;;;;;6.80;3.58;;;;;;;26.28;63.87;100061.75;10452604;28;20448;-64
2023/05/25 04:15:50;;;;;;;7.75;3.97;;;;;;;26.25;63.90;100045.19;10454290;28;20065;-65
2023/05/25 04:20:51;;;;;;;5.07;3.50;;;;;;;27.39;61.58;100044.19;10453585;28;20037;-63
2023/05/25 04:25:52;;;;;;;5.63;3.67;;;;;;;28.16;59.78;100004.03;10454231;28;20112;-64
2023/05/25 04:30:55;;;;;;;6.57;3.28;;;;;;;29.35;57.72;100061.34;10454293;28;20111;-64
2023/05/25 04:35:59;;;;;;;5.65;3.30;;;;;;;29.51;57.15;100062.69;10463213;28;20059;-64
2023/05/25 04:41:02;;;;;;;5.65;3.25;;;;;;;29.40;57.38;100071.38;10471195;28;20044;-65
2023/05/25 04:46:03;;;;;;;7.43;3.40;;;;;;;29.65;56.55;100075.63;10464960;28;20111;-64
2023/05/25 04:51:05;;;;;;;7.65;3.35;;;;;;;30.10;55.87;100067.66;10474666;28;20041;-65
2023/05/25 04:56:06;;;;;;;7.47;3.50;;;;;;;29.90;54.55;99994.91;10453383;28;20115;-64
2023/05/25 05:01:07;;;;;;;4.97;3.40;;;;;;;29.92;54.90;100004.44;10454315;28;20127;-64
2023/05/25 05:06:09;;;;;;;6.28;3.38;;;;;;;29.58;55.47;99991.94;10452412;28;20090;-65
2023/05/25 05:11:10;;;;;;;;;;;;;;;30.42;54.63;100073.03;10458257;28;20048;-66
2023/05/25 05:16:10;;;;;;;5.53;2.72;;;;;;;29.36;55.54;100027.41;10460553;28;19970;-63
2023/05/25 05:21:11;;;;;;;7.60;3.13;;;;;;;29.21;56.14;100061.28;10460002;28;20041;-63
2023/05/25 05:26:13;;;;;;;11.63;3.38;;;;;;;29.09;57.37;100060.94;10458987;28;20516;-63
2023/05/25 05:31:16;;;;;;;6.65;3.13;;;;;;;28.97;56.83;100036.78;10457777;28;20424;-64
2023/05/25 05:36:17;;;;;;;6.30;3.10;;;;;;;28.84;56.87;100019.22;10459108;28;20048;-64
2023/05/25 05:41:17;;;;;;;5.18;3.05;;;;;;;29.24;57.63;100047.03;10459277;28;20279;-64
2023/05/25 05:46:18;;;;;;;7.78;3.22;;;;;;;29.34;57.17;100049.56;10458432;28;20520;-64
2023/05/25 05:51:19;;;;;;;6.22;3.33;;;;;;;29.33;57.01;100055.34;10458402;28;20436;-64
2023/05/25 05:56:20;;;;;;;6.13;3.10;;;;;;;28.89;56.56;99977.28;10458864;28;20076;-65
2023/05/25 06:01:22;;;;;;;5.35;3.60;;;;;;;28.94;57.81;100042.84;10458592;28;20064;-64
2023/05/25 06:06:23;;;;;;;6.60;3.47;;;;;;;29.07;57.59;100011.19;10458355;28;20052;-64
2023/05/25 06:11:23;;;;;;;5.60;3.17;;;;;;;29.43;56.90;100029.72;10457545;28;20071;-64
2023/05/25 06:16:24;;;;;;;7.25;2.80;;;;;;;29.45;56.16;100025.59;10457759;28;20048;-66
2023/05/25 06:21:25;;;;;;;6.13;3.28;;;;;;;29.49;56.50;100043.00;10472501;28;20040;-64
2023/05/25 06:26:26;;;;;;;8.70;3.10;;;;;;;29.40;56.09;100022.13;10457438;28;20048;-64
2023/05/25 06:31:26;;;;;;;6.20;2.80;;;;;;;29.56;55.09;99980.50;10457615;28;20386;-65
2023/05/25 06:36:27;;;;;;;15.50;3.47;;;;;;;30.03;53.81;100041.47;10455317;28;20516;-65
2023/05/25 06:41:28;;;;;;;10.23;3.75;;;;;;;30.19;53.56;100046.63;10455766;28;20040;-65
2023/05/25 06:46:30;;;;;;;7.20;3.35;;;;;;;30.30;53.27;100034.34;10456782;28;20131;-65
2023/05/25 06:51:32;;;;;;;11.00;3.53;;;;;;;30.49;52.20;100020.53;10456731;28;20103;-65
2023/05/25 06:56:33;;;;;;;9.75;3.47;;;;;;;30.63;51.20;100020.47;10456178;28;20086;-64
2023/05/25 07:01:35;;;;;;;9.68;3.30;;;;;;;30.81;50.88;100030.50;10457036;28;20520;-64
2023/05/25 07:06:36;;;;;;;7.23;2.97;;;;;;;30.89;50.57;100018.75;10455445;28;20041;-65
2023/05/25 07:11:36;;;;;;;7.97;3.20;;;;;;;31.03;49.34;100005.00;10455216;28;20505;-65
2023/05/25 07:16:37;;;;;;;8.40;3.25;;;;;;;31.16;48.77;100019.75;10455758;28;20046;-64
2023/05/25 07:21:38;;;;;;;13.10;3.80;;;;;;;30.91;48.11;99993.78;10455668;28;20476;-66
2023/05/25 07:26:39;;;;;;;9.43;3.47;;;;;;;30.75;48.32;99992.50;10454926;28;20057;-65
2023/05/25 07:31:40;;;;;;;24.13;3.63;;;;;;;31.14;48.50;100011.00;10454781;28;20144;-65
2023/05/25 07:36:40;;;;;;;13.55;4.18;;;;;;;31.34;47.08;100001.44;10454343;28;20116;-65
2023/05/25 07:41:41;;;;;;;13.20;3.17;;;;;;;31.61;46.44;99986.75;10455296;28;20049;-66
2023/05/25 07:46:42;;;;;;;7.30;3.13;;;;;;;31.71;45.24;99997.47;10454464;28;20068;-65
2023/05/25 07:51:44;;;;;;;9.75;3.53;;;;;;;31.82;44.39;100004.25;10453261;28;20135;-64
2023/05/25 07:56:45;;;;;;;6.32;3.03;;;;;;;31.93;44.01;99982.03;10453944;28;20417;-65
2023/05/25 08:01:45;;;;;;;14.05;3.60;;;;;;;31.96;44.26;99997.88;10454821;28;20048;-66
2023/05/25 08:06:46;;;;;;;9.25;3.65;;;;;;;32.15;43.89;100001.13;10453683;28;20044;-65
2023/05/25 08:11:47;;;;;;;22.55;3.30;;;;;;;31.99;43.29;99932.09;10454121;28;20045;-65
2023/05/25 08:16:49;;;;;;;13.32;3.15;;;;;;;32.09;42.53;99921.94;10453890;28;20136;-65
2023/05/25 08:21:50;;;;;;;10.98;3.40;;;;;;;31.63;42.84;99868.38;10454620;28;20535;-65
2023/05/25 08:26:51;;;;;;;7.80;2.85;;;;;;;32.03;42.35;99918.53;10454209;28;20067;-64
2023/05/25 08:31:51;;;;;;;9.43;2.97;;;;;;;32.59;42.09;99980.00;10452718;28;20530;-65
2023/05/25 08:36:52;;;;;;;7.50;2.80;;;;;;;32.39;42.11;99961.38;10453746;28;20038;-65
2023/05/25 08:41:53;;;;;;;12.85;3.45;;;;;;;32.46;42.26;99972.75;10453428;28;20091;-65
2023/05/25 08:46:55;;;;;;;11.82;3.70;;;;;;;32.75;41.10;99963.81;10458834;28;20049;-66
2023/05/25 08:51:56;;;;;;;;;;;;;;;33.25;41.70;99966.00;10462287;28;20045;-65
2023/05/25 08:57:15;;;;;;;12.82;3.38;;;;;;;33.39;39.03;99972.09;10461057;28;19917;-65
2023/05/25 09:02:34;;;;;;;12.07;3.70;;;;;;;33.30;39.61;99968.56;10461314;28;20045;-65
2023/05/25 09:07:35;;;;;;;8.05;3.22;;;;;;;33.02;39.97;99912.31;10460234;28;20120;-65
2023/05/25 09:12:37;;;;;;;7.78;3.38;;;;;;;33.05;38.58;99915.22;10460457;28;20069;-66
2023/05/25 09:17:40;;;;;;;8.23;3.42;;;;;;;33.28;38.66;99957.06;10460190;28;20037;-66
2023/05/25 09:22:41;;;;;;;8.55;3.70;;;;;;;33.30;38.46;99945.75;10458551;28;20041;-67
2023/05/25 09:27:42;;;;;;;8.82;3.22;;;;;;;33.34;38.64;99968.72;10459270;28;20075;-66
2023/05/25 09:32:43;;;;;;;8.05;3.40;;;;;;;33.43;38.45;99966.72;10459810;28;20131;-65
2023/05/25 09:37:44;;;;;;;7.13;3.17;;;;;;;33.71;37.36;99955.28;10459583;28;20584;-65
2023/05/25 09:42:45;;;;;;;9.43;3.22;;;;;;;33.79;37.01;99946.97;10459559;28;20124;-66
2023/05/25 09:47:45;;;;;;;11.10;3.50;;;;;;;33.86;37.88;99957.47;10459304;28;20131;-65
2023/05/25 09:52:47;;;;;;;8.90;3.42;;;;;;;33.69;38.11;99957.59;10458969;28;20495;-67
2023/05/25 09:57:53;;;;;;;12.37;3.80;;;;;;;33.81;38.48;99958.47;10457887;28;20043;-65
2023/05/25 10:02:54;;;;;;;29.02;3.92;;;;;;;33.67;38.74;99946.09;10459079;28;20492;-66
2023/05/25 10:07:55;;;;;;;12.23;3.50;;;;;;;33.80;38.12;99940.31;10459970;28;20051;-65
2023/05/25 10:12:57;;;;;;;14.95;3.60;;;;;;;34.21;37.93;99958.06;10458380;28;20037;-65
2023/05/25 10:18:00;;;;;;;;;;;;;;;34.81;37.69;99957.91;10458436;28;20420;-65
2023/05/25 10:23:10;;;;;;;14.18;3.40;;;;;;;34.27;37.21;99939.38;10457067;28;19985;-65
2023/05/25 10:28:23;;;;;;;12.57;4.53;;;;;;;33.85;37.86;99948.38;10458185;28;20053;-65
2023/05/25 10:33:24;;;;;;;9.80;3.95;;;;;;;33.64;38.76;99950.31;10457187;28;20722;-66
2023/05/25 10:38:27;;;;;;;11.50;3.53;;;;;;;33.78;38.33;99945.38;10456095;28;20040;-66
2023/05/25 10:43:29;;;;;;;14.32;3.75;;;;;;;33.49;38.26;99959.91;10455758;28;20511;-65
2023/05/25 10:48:47;;;;;;;22.47;4.77;;;;;;;32.91;39.92;99950.38;10456170;28;20119;-65
2023/05/25 10:53:58;;;;;;;11.15;2.83;;;;;;;32.88;40.21;99945.53;10455948;28;20543;-64
2023/05/25 10:59:00;;;;;;;14.83;3.90;;;;;;;33.44;39.62;99940.81;10456402;28;20113;-65
2023/05/25 11:04:04;;;;;;;6.10;3.40;;;;;;;33.81;38.07;99946.66;10454382;28;20409;-65
2023/05/25 11:09:06;;;;;;;13.48;3.78;;;;;;;33.82;37.30;99920.72;10455061;28;20545;-66
2023/05/25 11:14:26;;;;;;;9.27;3.30;;;;;;;33.88;36.11;99878.03;10456153;28;20128;-65
2023/05/25 11:19:38;;;;;;;18.02;3.70;;;;;;;34.05;35.66;99899.97;10455222;28;20037;-65
2023/05/25 11:24:40;;;;;;;15.05;3.72;;;;;;;34.20;36.22;99906.84;10455892;28;20557;-65
2023/05/25 11:29:41;;;;;;;;;;;;;;;34.56;35.18;99902.66;10456211;28;20057;-65
2023/05/25 11:34:45;;;;;;;9.95;3.95;;;;;;;34.34;35.74;99891.94;10454310;28;19921;-65
2023/05/25 11:39:47;;;;;;;15.50;3.80;;;;;;;34.04;35.56;99870.00;10455615;28;20493;-65
2023/05/25 11:44:48;;;;;;;19.17;5.10;;;;;;;34.31;35.18;99874.13;10454219;28;20094;-66
2023/05/25 11:49:49;;;;;;;14.25;3.75;;;;;;;34.23;34.96;99877.78;10461280;28;20039;-65
2023/05/25 11:54:51;;;;;;;19.73;4.40;;;;;;;33.92;34.76;99867.94;10469732;28;20040;-66
2023/05/25 11:59:54;;;;;;;12.02;3.78;;;;;;;34.12;35.41;99865.56;10466813;28;20500;-65
2023/05/25 12:04:58;;;;;;;13.57;3.75;;;;;;;34.16;34.82;99794.81;10477335;28;20049;-65
2023/05/25 12:10:08;;;;;;;10.48;3.53;;;;;;;34.94;34.42;99862.94;10477370;28;20119;-66
2023/05/25 12:15:14;;;;;;;17.13;4.30;;;;;;;35.03;33.55;99844.31;10474294;28;20047;-66
2023/05/25 12:20:16;;;;;;;13.43;4.22;;;;;;;34.91;33.93;99838.78;10477184;28;20039;-66
2023/05/25 12:25:18;;;;;;;;;;;;;;;35.19;33.69;99841.72;10481625;28;20048;-67
2023/05/25 12:30:27;;;;;;;16.45;4.10;;;;;;;33.88;34.09;99789.88;10482119;28;19920;-66
2023/05/25 12:35:28;;;;;;;21.45;4.10;;;;;;;33.53;35.48;99801.16;10480665;28;20033;-66
2023/05/25 12:40:29;;;;;;;15.18;4.30;;;;;;;33.94;35.30;99805.03;10477040;28;21073;-66
2023/05/25 12:45:30;;;;;;;15.85;3.83;;;;;;;34.24;34.90;99822.31;10482869;28;20048;-65
2023/05/25 12:50:31;;;;;;;17.73;4.18;;;;;;;34.45;34.92;99815.94;10486968;28;20412;-65
2023/05/25 12:55:34;;;;;;;19.73;4.28;;;;;;;34.51;34.67;99817.31;10461230;28;20436;-65
2023/05/25 13:00:42;;;;;;;15.98;5.07;;;;;;;33.82;34.34;99744.38;10462047;28;20064;-65
2023/05/25 13:05:45;;;;;;;14.98;4.10;;;;;;;34.06;34.57;99818.91;10469769;28;20223;-65
2023/05/25 13:10:50;;;;;;;26.20;10.38;;;;;;;33.77;34.66;99764.66;10460474;28;20052;-65
2023/05/25 13:15:50;;;;;;;14.73;4.20;;;;;;;33.72;34.90;99806.22;10461037;28;20052;-66
2023/05/25 13:20:51;;;;;;;16.05;4.55;;;;;;;32.90;36.05;99734.97;10460204;28;20063;-65
2023/05/25 13:25:52;;;;;;;16.23;3.83;;;;;;;32.89;36.49;99801.31;10459038;28;20504;-66
2023/05/25 13:30:53;;;;;;;18.50;4.22;;;;;;;32.73;36.84;99801.88;10464315;28;20110;-65
2023/05/25 13:35:57;;;;;;;18.23;4.60;;;;;;;32.29;37.28;99787.41;10472025;28;20046;-65
2023/05/25 13:40:58;;;;;;;12.88;4.07;;;;;;;32.15;38.78;99829.97;10495189;28;20056;-64
2023/05/25 13:45:59;;;;;;;31.55;4.97;;;;;;;31.73;41.14;99841.41;10481265;28;20045;-65
2023/05/25 13:51:02;;;;;;;24.88;5.68;;;;;;;30.36;45.29;99786.50;10480750;28;20135;-66
2023/05/25 13:56:02;;;;;;;220.65;119.63;;;;;;;28.90;52.18;99807.50;10490725;28;20041;-66
2023/05/25 14:01:04;;;;;;;74.00;36.25;;;;;;;27.97;56.92;99894.81;10466165;28;20037;-67
2023/05/25 14:06:05;;;;;;;44.00;13.55;;;;;;;26.42;63.80;99883.03;10477968;28;20072;-67
2023/05/25 14:11:05;;;;;;;31.35;8.70;;;;;;;24.75;68.56;99818.25;10469168;28;20040;-67
2023/05/25 14:16:06;;;;;;;29.70;7.05;;;;;;;24.60;74.44;99873.38;10459143;28;20377;-69
2023/05/25 14:21:09;;;;;;;35.35;8.13;;;;;;;24.44;77.79;99871.78;10464381;28;20171;-66
2023/05/25 14:26:11;;;;;;;35.90;8.80;;;;;;;23.68;81.83;99745.72;10456712;28;20432;-67
2023/05/25 14:31:12;;;;;;;30.42;7.10;;;;;;;24.38;86.01;99834.81;10467317;28;20509;-66
2023/05/25 14:36:13;;;;;;;51.85;29.67;;;;;;;23.97;81.97;99739.03;10468006;28;20174;-66
2023/05/25 14:41:13;;;;;;;33.35;13.60;;;;;;;24.49;82.94;99790.28;10462254;28;20127;-65
2023/05/25 14:46:14;;;;;;;86.40;41.65;;;;;;;23.78;86.36;99709.72;10461551;28;20048;-68
2023/05/25 14:51:15;;;;;;;25.67;12.52;;;;;;;24.25;90.24;99808.22;10456482;28;20041;-65
2023/05/25 14:56:20;;;;;;;30.33;9.50;;;;;;;24.14;99.34;99810.09;10466760;28;20044;-67
2023/05/25 15:01:21;;;;;;;20.95;7.82;;;;;;;23.29;94.89;99649.72;10454686;28;20047;-66
2023/05/25 15:06:21;;;;;;;25.80;8.45;;;;;;;24.14;97.14;99786.50;10468915;28;20042;-67
2023/05/25 15:11:22;;;;;;;34.90;16.73;;;;;;;23.72;99.26;99764.22;10455942;28;20516;-66
2023/05/25 15:16:23;;;;;;;19.88;9.52;;;;;;;23.72;99.92;99838.25;10468705;28;20044;-67
2023/05/25 15:21:25;;;;;;;40.70;8.65;;;;;;;23.27;100.00;99792.78;10482398;28;20131;-66
2023/05/25 15:26:26;;;;;;;17.80;6.90;;;;;;;24.13;100.00;99925.97;10453647;28;20061;-66
2023/05/25 15:44:48;;;;;;;29.13;6.20;;;;;;;23.73;100.00;99961.13;10573299;27;20403;-65
2023/05/25 15:49:49;;;;;;;17.95;4.68;;;;;;;23.36;99.31;99945.69;10533024;28;20490;-64
2023/05/25 15:54:50;;;;;;;16.92;5.80;;;;;;;22.94;97.14;99908.53;10531649;28;20047;-65
2023/05/25 15:59:50;;;;;;;17.67;5.70;;;;;;;22.72;96.94;99963.63;10501972;28;20044;-64
2023/05/25 16:04:51;;;;;;;21.65;6.18;;;;;;;22.73;96.32;100041.06;10492618;28;20055;-64
2023/05/25 16:09:52;;;;;;;12.48;4.85;;;;;;;22.58;97.32;100053.63;10495762;28;20553;-65
2023/05/25 16:14:53;;;;;;;10.52;3.58;;;;;;;22.37;96.64;100072.34;10487954;28;20049;-64
2023/05/25 16:19:54;;;;;;;9.48;2.88;;;;;;;22.30;94.25;100063.59;10488577;28;20123;-65
2023/05/25 16:24:55;;;;;;;11.50;3.30;;;;;;;22.05;91.03;100010.00;10488467;28;20136;-65
2023/05/25 16:29:55;;;;;;;8.68;2.78;;;;;;;22.50;91.20;100092.81;10487512;28;20045;-64
2023/05/25 16:34:56;;;;;;;10.45;3.20;;;;;;;22.15;91.73;100042.56;10498006;28;20542;-66
2023/05/25 16:39:57;;;;;;;9.60;3.63;;;;;;;22.55;92.90;100098.25;10488326;28;20051;-65
2023/05/25 16:44:58;;;;;;;8.13;3.58;;;;;;;22.59;93.78;100077.75;10464124;28;20052;-65
2023/05/25 16:49:59;;;;;;;12.02;3.70;;;;;;;22.27;95.17;100043.28;10459390;28;20068;-66
2023/05/25 16:55:00;;;;;;;17.30;4.30;;;;;;;22.28;96.31;100017.03;10461678;28;20037;-66
2023/05/25 17:00:01;;;;;;;13.85;3.65;;;;;;;21.96;96.45;99933.88;10466628;28;20045;-68
2023/05/25 17:05:05;;;;;;;16.35;4.80;;;;;;;22.00;97.03;99951.22;10459407;28;20060;-66
2023/05/25 17:10:07;;;;;;;12.73;4.72;;;;;;;21.93;98.42;99938.94;10473316;28;20080;-65
2023/05/25 17:15:10;;;;;;;14.50;4.90;;;;;;;21.82;98.97;99933.44;10458545;28;20509;-65
2023/05/25 17:20:11;;;;;;;14.32;5.25;;;;;;;21.60;100.00;99908.31;10458948;28;20045;-66
2023/05/25 17:25:11;;;;;;;13.93;5.22;;;;;;;21.53;100.00;99880.63;10457452;28;20490;-67
2023/05/25 17:30:13;;;;;;;28.17;11.80;;;;;;;21.75;100.00;99927.41;10458549;28;20049;-67
2023/05/25 17:35:14;;;;;;;13.07;5.95;;;;;;;21.75;100.00;99938.22;10476897;28;20131;-66
2023/05/25 17:40:14;;;;;;;20.55;5.85;;;;;;;21.58;100.00;99910.44;10498767;28;20456;-67
2023/05/25 17:45:15;;;;;;;11.73;5.18;;;;;;;21.50;100.00;99914.38;10499217;28;20533;-67
2023/05/25 17:50:16;;;;;;;13.80;5.05;;;;;;;21.40;100.00;99898.84;10499465;28;20044;-67
2023/05/25 17:55:17;;;;;;;12.65;6.07;;;;;;;21.34;100.00;99897.13;10497824;28;20067;-66
2023/05/25 18:00:21;;;;;;;17.45;6.32;;;;;;;20.95;100.00;99826.91;10498253;28;20039;-66
2023/05/25 18:05:22;;;;;;;16.65;8.15;;;;;;;21.47;100.00;99898.66;10498421;28;20127;-66
2023/05/25 18:10:22;;;;;;;17.45;6.72;;;;;;;21.55;100.00;99919.84;10498715;28;20063;-66
2023/05/25 18:15:23;;;;;;;19.75;8.00;;;;;;;21.57;100.00;99943.94;10497246;28;20109;-66
2023/05/25 18:20:24;;;;;;;17.02;6.10;;;;;;;20.91;100.00;99858.19;10495957;28;20044;-66
2023/05/25 18:25:25;;;;;;;11.45;5.40;;;;;;;21.36;100.00;99932.03;10497120;28;20040;-66
2023/05/25 18:30:26;;;;;;;13.95;4.57;;;;;;;21.51;100.00;99939.50;10497604;28;20036;-66
2023/05/25 18:35:26;;;;;;;15.48;6.30;;;;;;;21.36;100.00;99894.22;10497053;28;20036;-66
2023/05/25 18:40:27;;;;;;;18.25;8.25;;;;;;;21.46;100.00;99926.75;10478898;28;20068;-66
2023/05/25 18:45:28;;;;;;;17.73;7.40;;;;;;;21.39;100.00;99935.06;10454298;28;20037;-65
2023/05/25 18:50:29;;;;;;;15.95;5.85;;;;;;;21.33;100.00;99965.75;10455706;28;20055;-65
2023/05/25 18:55:29;;;;;;;16.60;4.88;;;;;;;21.05;100.00;99914.53;10457572;28;20041;-65
2023/05/25 19:00:30;;;;;;;14.43;5.50;;;;;;;21.25;100.00;99933.75;10463248;28;20045;-65
2023/05/25 19:05:31;;;;;;;16.42;5.60;;;;;;;21.73;100.00;100002.53;10454852;28;20457;-67
2023/05/25 19:10:32;;;;;;;27.05;6.10;;;;;;;21.75;100.00;99997.72;10455301;28;20484;-65
2023/05/25 19:15:32;;;;;;;13.23;5.05;;;;;;;21.79;100.00;99998.84;10454461;28;20534;-65
2023/05/25 19:20:34;;;;;;;14.18;5.78;;;;;;;21.96;100.00;100035.84;10456384;28;20045;-65
2023/05/25 19:25:35;;;;;;;11.25;4.38;;;;;;;21.74;100.00;100024.97;10474065;28;20462;-65
2023/05/25 19:30:38;;;;;;;13.02;3.92;;;;;;;22.08;100.00;100104.16;10453369;28;20103;-65
2023/05/25 19:47:51;;;;;;;13.07;4.80;;;;;;;22.07;100.00;100132.25;10482252;28;20432;-67
2023/05/25 19:52:51;;;;;;;14.63;5.47;;;;;;;21.97;100.00;100167.28;10481251;28;20036;-68
2023/05/25 19:57:52;;;;;;;11.90;4.43;;;;;;;21.76;100.00;100166.16;10482288;28;20452;-68
2023/05/25 20:02:53;;;;;;;17.02;5.65;;;;;;;21.65;100.00;100179.47;10483039;28;20048;-66
2023/05/25 20:20:18;;;;;;;18.05;6.10;;;;;;;20.67;100.00;100078.03;10482494;28;20455;-67
2023/05/25 20:25:19;;;;;;;22.65;6.00;;;;;;;20.27;100.00;99997.91;10476829;28;20552;-68
2023/05/25 20:30:20;;;;;;;14.02;4.82;;;;;;;20.53;100.00;100028.94;10439531;28;20097;-68
2023/05/25 20:35:21;;;;;;;10.27;4.85;;;;;;;20.64;100.00;100029.94;10440422;28;20128;-68
2023/05/25 20:40:21;;;;;;;11.05;4.75;;;;;;;20.69;100.00;99994.94;10441020;28;20132;-68
2023/05/25 20:45:23;;;;;;;10.70;4.28;;;;;;;20.28;100.00;99924.00;10440195;28;20050;-68
2023/05/25 20:50:24;;;;;;;9.40;4.43;;;;;;;20.56;100.00;99990.69;10440693;28;20128;-69
2023/05/25 20:55:25;;;;;;;8.38;3.38;;;;;;;20.38;100.00;99978.16;10440475;28;20045;-68
2023/05/25 21:00:26;;;;;;;8.98;3.65;;;;;;;20.28;100.00;99986.06;10440378;28;20511;-69
2023/05/25 21:05:26;;;;;;;12.13;6.45;;;;;;;20.24;100.00;100010.00;10440315;28;20041;-69
2023/05/25 21:10:27;;;;;;;16.27;5.57;;;;;;;20.20;100.00;99995.38;10439433;28;20460;-70
2023/05/25 21:15:28;;;;;;;13.45;5.95;;;;;;;20.35;100.00;99994.84;10439609;28;20048;-71
2023/05/25 21:20:29;;;;;;;18.83;7.22;;;;;;;20.31;100.00;99964.00;10415810;28;20053;-71
2023/05/25 21:25:30;;;;;;;18.80;6.28;;;;;;;20.51;100.00;99974.34;10412515;28;20128;-71
2023/05/25 21:30:30;;;;;;;25.00;7.13;;;;;;;20.64;100.00;100002.94;10412148;28;20045;-71
2023/05/25 21:35:31;;;;;;;13.68;6.32;;;;;;;20.47;100.00;99978.59;10411864;28;20045;-71
2023/05/25 21:40:32;;;;;;;10.95;5.05;;;;;;;20.50;100.00;99981.63;10411354;28;20042;-70
2023/05/25 21:45:33;;;;;;;10.38;4.97;;;;;;;20.57;100.00;100010.38;10411849;28;20050;-71
2023/05/25 21:50:35;;;;;;;14.00;4.82;;;;;;;20.34;100.00;99951.91;10411418;28;20094;-71
2023/05/25 21:55:36;;;;;;;14.02;5.45;;;;;;;20.43;100.00;99966.63;10410361;28;20041;-71
2023/05/25 22:00:36;;;;;;;12.65;5.13;;;;;;;20.39;100.00;99960.91;10411585;28;20041;-70
2023/05/25 22:05:37;;;;;;;14.10;5.88;;;;;;;20.42;100.00;99952.34;10410889;28;20049;-70
2023/05/25 22:10:38;;;;;;;13.77;7.55;;;;;;;20.41;100.00;99968.78;10410740;28;20076;-70
2023/05/25 22:15:39;;;;;;;13.77;5.53;;;;;;;20.22;100.00;99941.16;10410592;28;20067;-70
2023/05/25 22:20:40;;;;;;;13.82;5.30;;;;;;;20.21;100.00;99961.94;10410348;28;20049;-70
2023/05/25 22:25:41;;;;;;;18.70;5.60;;;;;;;20.32;100.00;99989.94;10410246;28;20049;-70
2023/05/25 22:30:42;;;;;;;46.70;17.65;;;;;;;20.24;100.00;99993.81;10409200;28;20048;-69
2023/05/25 22:35:43;;;;;;;20.80;9.85;;;;;;;20.27;100.00;99987.13;10410457;28;20561;-70
2023/05/25 22:40:46;;;;;;;23.40;8.30;;;;;;;20.32;100.00;99979.13;10409520;28;20053;-70
2023/05/25 22:45:47;;;;;;;14.80;7.37;;;;;;;20.27;100.00;99985.25;10409613;28;20069;-70
2023/05/25 22:50:47;;;;;;;10.50;5.28;;;;;;;20.28;100.00;99988.75;10409945;28;20041;-70
2023/05/25 22:55:48;;;;;;;11.88;5.70;;;;;;;20.28;100.00;99976.13;10409346;28;20055;-69
2023/05/25 23:00:49;;;;;;;17.20;7.85;;;;;;;20.40;100.00;99989.56;10408666;28;20041;-70
2023/05/25 23:05:50;;;;;;;26.88;8.15;;;;;;;20.51;100.00;99995.94;10409286;28;20115;-69
2023/05/25 23:10:50;;;;;;;14.55;6.55;;;;;;;20.40;100.00;99976.06;10408188;28;20041;-69
2023/05/25 23:15:53;;;;;;;15.30;7.28;;;;;;;20.43;100.00;99989.06;10408040;28;20476;-69
2023/05/25 23:20:54;;;;;;;12.07;6.03;;;;;;;19.92;100.00;99896.38;10408700;28;20522;-70
2023/05/25 23:25:56;;;;;;;11.73;5.13;;;;;;;20.43;100.00;99990.91;10408058;28;20056;-70
2023/05/25 23:30:56;;;;;;;14.48;5.65;;;;;;;19.54;100.00;99864.63;10407077;28;20033;-70
2023/05/25 23:35:58;;;;;;;12.63;5.13;;;;;;;20.29;100.00;99985.03;10407307;28;20416;-70
2023/05/25 23:40:59;;;;;;;10.63;5.15;;;;;;;20.21;100.00;99996.19;10407777;28;20040;-70